sensor_id;sensor_type;location;lat;lon;timestamp;temperature;humidity
29813;DHT22;16707;48.106;11.548;2023-09-08T00:00:52;12.90;99.90
29813;DHT22;16707;48.106;11.548;2023-09-08T00:03:19;12.90;99.90
29813;DHT22;16707;48.106;11.548;2023-09-08T00:05:47;12.90;99.90
29813;DHT22;16707;48.106;11.548;2023-09-08T00:08:14;12.80;99.90
29813;DHT22;16707;48.106;11.548;2023-09-08T00:10:42;12.80;99.90
29813;DHT22;16707;48.106;11.548;2023-09-08T00:13:09;12.80;99.90
29813;DHT22;16707;48.106;11.548;2023-09-08T00:15:36;12.80;99.90
29813;DHT22;16707;48.106;11.548;2023-09-08T00:18:04;12.80;99.90
29813;DHT22;16707;48.106;11.548;2023-09-08T00:20:31;12.80;99.90
29813;DHT22;16707;48.106;11.548;2023-09-08T00:22:57;12.70;99.90
29813;DHT22;16707;48.106;11.548;2023-09-08T00:25:24;12.60;99.90
29813;DHT22;16707;48.106;11.548;2023-09-08T00:27:52;12.60;99.90
29813;DHT22;16707;48.106;11.548;2023-09-08T00:30:19;12.50;99.90
29813;DHT22;16707;48.106;11.548;2023-09-08T00:32:46;12.50;99.90
29813;DHT22;16707;48.106;11.548;2023-09-08T00:35:13;12.50;99.90
29813;DHT22;16707;48.106;11.548;2023-09-08T00:37:40;12.50;99.90
29813;DHT22;16707;48.106;11.548;2023-09-08T00:40:08;12.40;99.90
29813;DHT22;16707;48.106;11.548;2023-09-08T00:42:36;12.40;99.90
29813;DHT22;16707;48.106;11.548;2023-09-08T00:45:05;12.40;99.90
29813;DHT22;16707;48.106;11.548;2023-09-08T00:47:33;12.40;99.90
29813;DHT22;16707;48.106;11.548;2023-09-08T00:50:00;12.40;99.90
29813;DHT22;16707;48.106;11.548;2023-09-08T00:52:28;12.40;99.90
29813;DHT22;16707;48.106;11.548;2023-09-08T00:54:58;12.50;99.90
29813;DHT22;16707;48.106;11.548;2023-09-08T00:57:25;12.40;99.90
29813;DHT22;16707;48.106;11.548;2023-09-08T00:59:53;12.40;99.90
29813;DHT22;16707;48.106;11.548;2023-09-08T01:02:22;12.40;99.90
29813;DHT22;16707;48.106;11.548;2023-09-08T01:04:49;12.40;99.90
29813;DHT22;16707;48.106;11.548;2023-09-08T01:07:17;12.40;99.90
29813;DHT22;16707;48.106;11.548;2023-09-08T01:09:46;12.30;99.90
29813;DHT22;16707;48.106;11.548;2023-09-08T01:12:14;12.30;99.90
29813;DHT22;16707;48.106;11.548;2023-09-08T01:14:41;12.30;99.90
29813;DHT22;16707;48.106;11.548;2023-09-08T01:17:08;12.30;99.90
29813;DHT22;16707;48.106;11.548;2023-09-08T01:19:37;12.20;99.90
29813;DHT22;16707;48.106;11.548;2023-09-08T01:22:23;12.30;99.90
29813;DHT22;16707;48.106;11.548;2023-09-08T01:25:14;12.20;99.90
29813;DHT22;16707;48.106;11.548;2023-09-08T01:27:46;12.20;99.90
29813;DHT22;16707;48.106;11.548;2023-09-08T01:30:16;12.10;99.90
29813;DHT22;16707;48.106;11.548;2023-09-08T01:32:44;12.10;99.90
29813;DHT22;16707;48.106;11.548;2023-09-08T01:35:13;12.10;99.90
29813;DHT22;16707;48.106;11.548;2023-09-08T01:37:40;12.10;99.90
29813;DHT22;16707;48.106;11.548;2023-09-08T01:40:09;12.10;99.90
29813;DHT22;16707;48.106;11.548;2023-09-08T01:42:38;12.10;99.90
29813;DHT22;16707;48.106;11.548;2023-09-08T01:45:06;12.00;99.90
29813;DHT22;16707;48.106;11.548;2023-09-08T01:47:34;12.00;99.90
29813;DHT22;16707;48.106;11.548;2023-09-08T01:50:01;12.10;99.90
29813;DHT22;16707;48.106;11.548;2023-09-08T01:52:28;12.00;99.90
29813;DHT22;16707;48.106;11.548;2023-09-08T01:54:55;12.00;99.90
29813;DHT22;16707;48.106;11.548;2023-09-08T01:57:22;12.00;99.90
29813;DHT22;16707;48.106;11.548;2023-09-08T01:59:50;12.00;99.90
29813;DHT22;16707;48.106;11.548;2023-09-08T02:02:17;12.00;99.90
29813;DHT22;16707;48.106;11.548;2023-09-08T02:04:44;11.90;99.90
29813;DHT22;16707;48.106;11.548;2023-09-08T02:07:11;11.90;99.90
29813;DHT22;16707;48.106;11.548;2023-09-08T02:09:38;11.90;99.90
29813;DHT22;16707;48.106;11.548;2023-09-08T02:12:05;11.90;99.90
29813;DHT22;16707;48.106;11.548;2023-09-08T02:14:32;11.80;99.90
29813;DHT22;16707;48.106;11.548;2023-09-08T02:17:00;11.90;99.90
29813;DHT22;16707;48.106;11.548;2023-09-08T02:19:28;11.90;99.90
29813;DHT22;16707;48.106;11.548;2023-09-08T02:21:55;11.90;99.90
29813;DHT22;16707;48.106;11.548;2023-09-08T02:24:22;11.90;99.90
29813;DHT22;16707;48.106;11.548;2023-09-08T02:26:49;11.80;99.90
29813;DHT22;16707;48.106;11.548;2023-09-08T02:29:16;11.80;99.90
29813;DHT22;16707;48.106;11.548;2023-09-08T02:31:43;11.80;99.90
29813;DHT22;16707;48.106;11.548;2023-09-08T02:34:12;11.70;99.90
29813;DHT22;16707;48.106;11.548;2023-09-08T02:36:39;11.70;99.90
29813;DHT22;16707;48.106;11.548;2023-09-08T02:39:06;11.60;99.90
29813;DHT22;16707;48.106;11.548;2023-09-08T02:41:33;11.60;99.90
29813;DHT22;16707;48.106;11.548;2023-09-08T02:44:00;11.60;99.90
29813;DHT22;16707;48.106;11.548;2023-09-08T02:46:27;11.60;99.90
29813;DHT22;16707;48.106;11.548;2023-09-08T02:48:54;11.60;99.90
29813;DHT22;16707;48.106;11.548;2023-09-08T02:51:22;11.70;99.90
29813;DHT22;16707;48.106;11.548;2023-09-08T02:53:49;11.70;99.90
29813;DHT22;16707;48.106;11.548;2023-09-08T02:56:16;11.70;99.90
29813;DHT22;16707;48.106;11.548;2023-09-08T02:58:43;11.60;99.90
29813;DHT22;16707;48.106;11.548;2023-09-08T03:01:12;11.60;99.90
29813;DHT22;16707;48.106;11.548;2023-09-08T03:03:40;11.50;99.90
29813;DHT22;16707;48.106;11.548;2023-09-08T03:06:07;11.60;99.90
29813;DHT22;16707;48.106;11.548;2023-09-08T03:08:36;11.50;99.90
29813;DHT22;16707;48.106;11.548;2023-09-08T03:11:03;11.50;99.90
29813;DHT22;16707;48.106;11.548;2023-09-08T03:13:31;11.50;99.90
29813;DHT22;16707;48.106;11.548;2023-09-08T03:16:02;11.50;99.90
29813;DHT22;16707;48.106;11.548;2023-09-08T03:18:31;11.50;99.90
29813;DHT22;16707;48.106;11.548;2023-09-08T03:20:58;11.40;99.90
29813;DHT22;16707;48.106;11.548;2023-09-08T03:23:27;11.40;99.90
29813;DHT22;16707;48.106;11.548;2023-09-08T03:25:55;11.40;99.90
29813;DHT22;16707;48.106;11.548;2023-09-08T03:28:22;11.30;99.90
29813;DHT22;16707;48.106;11.548;2023-09-08T03:30:49;11.40;99.90
29813;DHT22;16707;48.106;11.548;2023-09-08T03:33:16;11.50;99.90
29813;DHT22;16707;48.106;11.548;2023-09-08T03:35:43;11.40;99.90
29813;DHT22;16707;48.106;11.548;2023-09-08T03:38:10;11.40;99.90
29813;DHT22;16707;48.106;11.548;2023-09-08T03:40:37;11.40;99.90
29813;DHT22;16707;48.106;11.548;2023-09-08T03:43:05;11.40;99.90
29813;DHT22;16707;48.106;11.548;2023-09-08T03:45:32;11.40;99.90
29813;DHT22;16707;48.106;11.548;2023-09-08T03:47:59;11.30;99.90
29813;DHT22;16707;48.106;11.548;2023-09-08T03:50:26;11.30;99.90
29813;DHT22;16707;48.106;11.548;2023-09-08T03:52:53;11.30;99.90
29813;DHT22;16707;48.106;11.548;2023-09-08T03:55:20;11.30;99.90
29813;DHT22;16707;48.106;11.548;2023-09-08T03:57:47;11.40;99.90
29813;DHT22;16707;48.106;11.548;2023-09-08T04:00:15;11.30;99.90
29813;DHT22;16707;48.106;11.548;2023-09-08T04:02:47;11.30;99.90
29813;DHT22;16707;48.106;11.548;2023-09-08T04:05:14;11.20;99.90
29813;DHT22;16707;48.106;11.548;2023-09-08T04:07:41;11.30;99.90
29813;DHT22;16707;48.106;11.548;2023-09-08T04:10:09;11.30;99.90
29813;DHT22;16707;48.106;11.548;2023-09-08T04:12:35;11.20;99.90
29813;DHT22;16707;48.106;11.548;2023-09-08T04:15:03;11.30;99.90
29813;DHT22;16707;48.106;11.548;2023-09-08T04:17:31;11.30;99.90
29813;DHT22;16707;48.106;11.548;2023-09-08T04:19:59;11.30;99.90
29813;DHT22;16707;48.106;11.548;2023-09-08T04:22:25;11.30;99.90
29813;DHT22;16707;48.106;11.548;2023-09-08T04:24:52;11.20;99.90
29813;DHT22;16707;48.106;11.548;2023-09-08T04:27:21;11.20;99.90
29813;DHT22;16707;48.106;11.548;2023-09-08T04:29:47;11.20;99.90
29813;DHT22;16707;48.106;11.548;2023-09-08T04:32:14;11.20;99.90
29813;DHT22;16707;48.106;11.548;2023-09-08T04:34:43;11.10;99.90
29813;DHT22;16707;48.106;11.548;2023-09-08T04:37:10;11.20;99.90
29813;DHT22;16707;48.106;11.548;2023-09-08T04:39:37;11.20;99.90
29813;DHT22;16707;48.106;11.548;2023-09-08T04:42:04;11.20;99.90
29813;DHT22;16707;48.106;11.548;2023-09-08T04:44:31;11.30;99.90
29813;DHT22;16707;48.106;11.548;2023-09-08T04:46:58;11.30;99.90
29813;DHT22;16707;48.106;11.548;2023-09-08T04:49:25;11.30;99.90
29813;DHT22;16707;48.106;11.548;2023-09-08T04:51:53;11.30;99.90
29813;DHT22;16707;48.106;11.548;2023-09-08T04:54:20;11.30;99.90
29813;DHT22;16707;48.106;11.548;2023-09-08T04:56:48;11.30;99.90
29813;DHT22;16707;48.106;11.548;2023-09-08T04:59:15;11.40;99.90
29813;DHT22;16707;48.106;11.548;2023-09-08T05:01:41;11.50;99.90
29813;DHT22;16707;48.106;11.548;2023-09-08T05:04:09;11.50;99.90
29813;DHT22;16707;48.106;11.548;2023-09-08T05:06:36;11.50;99.90
29813;DHT22;16707;48.106;11.548;2023-09-08T05:09:04;11.70;99.90
29813;DHT22;16707;48.106;11.548;2023-09-08T05:11:32;11.80;99.90
29813;DHT22;16707;48.106;11.548;2023-09-08T05:13:59;11.90;99.90
29813;DHT22;16707;48.106;11.548;2023-09-08T05:16:26;12.00;99.90
29813;DHT22;16707;48.106;11.548;2023-09-08T05:19:02;12.10;99.90
29813;DHT22;16707;48.106;11.548;2023-09-08T05:21:30;12.20;99.90
29813;DHT22;16707;48.106;11.548;2023-09-08T05:23:57;12.30;99.90
29813;DHT22;16707;48.106;11.548;2023-09-08T05:26:26;12.50;99.90
29813;DHT22;16707;48.106;11.548;2023-09-08T05:28:53;13.10;99.90
29813;DHT22;16707;48.106;11.548;2023-09-08T05:31:19;16.50;99.90
29813;DHT22;16707;48.106;11.548;2023-09-08T05:33:46;19.80;99.90
29813;DHT22;16707;48.106;11.548;2023-09-08T05:36:13;22.60;99.90
29813;DHT22;16707;48.106;11.548;2023-09-08T05:38:40;24.60;99.90
29813;DHT22;16707;48.106;11.548;2023-09-08T05:41:07;26.30;96.50
29813;DHT22;16707;48.106;11.548;2023-09-08T05:43:36;27.30;92.10
29813;DHT22;16707;48.106;11.548;2023-09-08T05:46:03;28.50;86.40
29813;DHT22;16707;48.106;11.548;2023-09-08T05:48:30;29.30;77.50
29813;DHT22;16707;48.106;11.548;2023-09-08T05:50:57;29.90;73.00
29813;DHT22;16707;48.106;11.548;2023-09-08T05:53:25;30.70;67.50
29813;DHT22;16707;48.106;11.548;2023-09-08T05:55:52;31.10;64.20
29813;DHT22;16707;48.106;11.548;2023-09-08T05:58:19;30.60;60.40
29813;DHT22;16707;48.106;11.548;2023-09-08T06:00:47;30.60;59.70
29813;DHT22;16707;48.106;11.548;2023-09-08T06:03:14;32.20;58.80
29813;DHT22;16707;48.106;11.548;2023-09-08T06:05:41;32.80;55.90
29813;DHT22;16707;48.106;11.548;2023-09-08T06:08:07;33.50;54.70
29813;DHT22;16707;48.106;11.548;2023-09-08T06:10:34;34.20;53.40
29813;DHT22;16707;48.106;11.548;2023-09-08T06:13:01;33.10;52.90
29813;DHT22;16707;48.106;11.548;2023-09-08T06:15:33;33.00;53.90
29813;DHT22;16707;48.106;11.548;2023-09-08T06:18:04;34.60;52.30
29813;DHT22;16707;48.106;11.548;2023-09-08T06:20:32;33.70;51.90
29813;DHT22;16707;48.106;11.548;2023-09-08T06:22:59;32.60;51.90
29813;DHT22;16707;48.106;11.548;2023-09-08T06:25:26;29.70;55.20
29813;DHT22;16707;48.106;11.548;2023-09-08T06:27:54;26.90;63.40
29813;DHT22;16707;48.106;11.548;2023-09-08T06:30:21;24.90;74.70
29813;DHT22;16707;48.106;11.548;2023-09-08T06:32:48;24.30;81.30
29813;DHT22;16707;48.106;11.548;2023-09-08T06:35:17;23.60;85.80
29813;DHT22;16707;48.106;11.548;2023-09-08T06:37:44;22.80;90.70
29813;DHT22;16707;48.106;11.548;2023-09-08T06:40:10;22.00;93.40
29813;DHT22;16707;48.106;11.548;2023-09-08T06:42:37;21.60;96.20
29813;DHT22;16707;48.106;11.548;2023-09-08T06:45:05;21.20;98.80
29813;DHT22;16707;48.106;11.548;2023-09-08T06:47:33;21.20;99.00
29813;DHT22;16707;48.106;11.548;2023-09-08T06:50:00;21.10;99.90
29813;DHT22;16707;48.106;11.548;2023-09-08T06:52:28;20.60;99.90
29813;DHT22;16707;48.106;11.548;2023-09-08T06:54:55;20.20;99.90
29813;DHT22;16707;48.106;11.548;2023-09-08T06:57:22;19.50;99.90
29813;DHT22;16707;48.106;11.548;2023-09-08T06:59:49;19.30;99.90
29813;DHT22;16707;48.106;11.548;2023-09-08T07:02:16;19.10;99.90
29813;DHT22;16707;48.106;11.548;2023-09-08T07:04:43;19.00;99.90
29813;DHT22;16707;48.106;11.548;2023-09-08T07:07:10;18.80;99.90
29813;DHT22;16707;48.106;11.548;2023-09-08T07:09:39;18.70;99.90
29813;DHT22;16707;48.106;11.548;2023-09-08T07:12:06;18.60;99.90
29813;DHT22;16707;48.106;11.548;2023-09-08T07:14:34;18.60;99.90
29813;DHT22;16707;48.106;11.548;2023-09-08T07:17:01;18.50;99.90
29813;DHT22;16707;48.106;11.548;2023-09-08T07:19:28;18.60;99.90
29813;DHT22;16707;48.106;11.548;2023-09-08T07:21:55;18.60;99.90
29813;DHT22;16707;48.106;11.548;2023-09-08T07:24:22;18.60;99.90
29813;DHT22;16707;48.106;11.548;2023-09-08T07:26:51;18.60;99.90
29813;DHT22;16707;48.106;11.548;2023-09-08T07:29:18;18.70;99.90
29813;DHT22;16707;48.106;11.548;2023-09-08T07:31:45;18.70;99.90
29813;DHT22;16707;48.106;11.548;2023-09-08T07:34:11;18.80;99.90
29813;DHT22;16707;48.106;11.548;2023-09-08T07:36:38;18.80;99.90
29813;DHT22;16707;48.106;11.548;2023-09-08T07:39:05;18.90;99.90
29813;DHT22;16707;48.106;11.548;2023-09-08T07:41:32;18.90;99.90
29813;DHT22;16707;48.106;11.548;2023-09-08T07:44:01;18.90;99.90
29813;DHT22;16707;48.106;11.548;2023-09-08T07:46:28;19.00;99.90
29813;DHT22;16707;48.106;11.548;2023-09-08T07:48:57;19.10;99.90
29813;DHT22;16707;48.106;11.548;2023-09-08T07:51:24;19.20;99.90
29813;DHT22;16707;48.106;11.548;2023-09-08T07:53:52;19.30;99.90
29813;DHT22;16707;48.106;11.548;2023-09-08T07:56:19;19.40;99.90
29813;DHT22;16707;48.106;11.548;2023-09-08T07:58:46;19.60;99.90
29813;DHT22;16707;48.106;11.548;2023-09-08T08:01:14;19.70;99.90
29813;DHT22;16707;48.106;11.548;2023-09-08T08:03:41;19.80;99.90
29813;DHT22;16707;48.106;11.548;2023-09-08T08:06:08;19.90;99.90
29813;DHT22;16707;48.106;11.548;2023-09-08T08:08:35;20.00;99.90
29813;DHT22;16707;48.106;11.548;2023-09-08T08:11:08;20.10;99.90
29813;DHT22;16707;48.106;11.548;2023-09-08T08:13:36;20.30;99.90
29813;DHT22;16707;48.106;11.548;2023-09-08T08:16:03;20.20;99.90
29813;DHT22;16707;48.106;11.548;2023-09-08T08:18:32;20.50;99.90
29813;DHT22;16707;48.106;11.548;2023-09-08T08:20:59;20.60;99.90
29813;DHT22;16707;48.106;11.548;2023-09-08T08:23:28;20.70;99.90
29813;DHT22;16707;48.106;11.548;2023-09-08T08:25:56;20.70;99.90
29813;DHT22;16707;48.106;11.548;2023-09-08T08:28:23;20.80;99.90
29813;DHT22;16707;48.106;11.548;2023-09-08T08:30:50;21.00;99.90
29813;DHT22;16707;48.106;11.548;2023-09-08T08:33:17;21.00;99.90
29813;DHT22;16707;48.106;11.548;2023-09-08T08:35:50;21.10;99.90
29813;DHT22;16707;48.106;11.548;2023-09-08T08:38:17;21.10;99.90
29813;DHT22;16707;48.106;11.548;2023-09-08T08:40:44;21.20;99.90
29813;DHT22;16707;48.106;11.548;2023-09-08T08:43:11;21.40;99.90
29813;DHT22;16707;48.106;11.548;2023-09-08T08:45:41;21.50;99.90
29813;DHT22;16707;48.106;11.548;2023-09-08T08:48:08;21.50;99.90
29813;DHT22;16707;48.106;11.548;2023-09-08T08:50:37;21.50;99.90
29813;DHT22;16707;48.106;11.548;2023-09-08T08:53:06;21.60;99.90
29813;DHT22;16707;48.106;11.548;2023-09-08T08:55:34;21.70;99.90
29813;DHT22;16707;48.106;11.548;2023-09-08T08:58:04;21.80;99.90
29813;DHT22;16707;48.106;11.548;2023-09-08T09:00:34;21.90;99.90
29813;DHT22;16707;48.106;11.548;2023-09-08T09:03:04;22.00;99.90
29813;DHT22;16707;48.106;11.548;2023-09-08T09:05:32;22.20;99.90
29813;DHT22;16707;48.106;11.548;2023-09-08T09:08:01;22.30;99.90
29813;DHT22;16707;48.106;11.548;2023-09-08T09:10:31;22.40;99.90
29813;DHT22;16707;48.106;11.548;2023-09-08T09:12:58;22.60;99.90
29813;DHT22;16707;48.106;11.548;2023-09-08T09:15:29;22.70;99.90
29813;DHT22;16707;48.106;11.548;2023-09-08T09:18:03;22.90;99.90
29813;DHT22;16707;48.106;11.548;2023-09-08T09:20:30;23.00;99.90
29813;DHT22;16707;48.106;11.548;2023-09-08T09:22:56;23.10;99.90
29813;DHT22;16707;48.106;11.548;2023-09-08T09:25:25;23.20;99.90
29813;DHT22;16707;48.106;11.548;2023-09-08T09:27:57;23.30;99.90
29813;DHT22;16707;48.106;11.548;2023-09-08T09:30:25;23.40;99.90
29813;DHT22;16707;48.106;11.548;2023-09-08T09:33:04;23.50;99.90
29813;DHT22;16707;48.106;11.548;2023-09-08T09:35:40;23.60;99.90
29813;DHT22;16707;48.106;11.548;2023-09-08T09:38:08;23.60;99.90
29813;DHT22;16707;48.106;11.548;2023-09-08T09:40:36;23.80;99.90
29813;DHT22;16707;48.106;11.548;2023-09-08T09:43:07;23.90;99.90
29813;DHT22;16707;48.106;11.548;2023-09-08T09:45:34;23.90;99.90
29813;DHT22;16707;48.106;11.548;2023-09-08T09:48:03;23.90;99.90
29813;DHT22;16707;48.106;11.548;2023-09-08T09:50:32;24.00;99.90
29813;DHT22;16707;48.106;11.548;2023-09-08T09:53:08;24.20;99.90
29813;DHT22;16707;48.106;11.548;2023-09-08T09:55:37;24.20;99.90
29813;DHT22;16707;48.106;11.548;2023-09-08T09:58:07;24.30;99.90
29813;DHT22;16707;48.106;11.548;2023-09-08T10:00:37;24.30;99.90
29813;DHT22;16707;48.106;11.548;2023-09-08T10:03:06;24.40;99.90
29813;DHT22;16707;48.106;11.548;2023-09-08T10:05:34;24.30;99.10
29813;DHT22;16707;48.106;11.548;2023-09-08T10:08:01;24.30;99.50
29813;DHT22;16707;48.106;11.548;2023-09-08T10:10:29;24.50;99.80
29813;DHT22;16707;48.106;11.548;2023-09-08T10:13:02;24.70;99.80
29813;DHT22;16707;48.106;11.548;2023-09-08T10:15:32;24.90;98.20
29813;DHT22;16707;48.106;11.548;2023-09-08T10:18:04;25.00;97.80
29813;DHT22;16707;48.106;11.548;2023-09-08T10:20:32;24.90;97.40
29813;DHT22;16707;48.106;11.548;2023-09-08T10:23:06;24.90;97.40
29813;DHT22;16707;48.106;11.548;2023-09-08T10:25:37;24.90;97.70
29813;DHT22;16707;48.106;11.548;2023-09-08T10:28:12;25.00;98.00
29813;DHT22;16707;48.106;11.548;2023-09-08T10:30:41;25.20;97.50
29813;DHT22;16707;48.106;11.548;2023-09-08T10:33:09;25.40;97.70
29813;DHT22;16707;48.106;11.548;2023-09-08T10:35:37;25.50;95.90
29813;DHT22;16707;48.106;11.548;2023-09-08T10:38:23;25.60;96.40
29813;DHT22;16707;48.106;11.548;2023-09-08T10:40:51;25.60;95.10
29813;DHT22;16707;48.106;11.548;2023-09-08T10:43:19;25.70;95.40
29813;DHT22;16707;48.106;11.548;2023-09-08T10:45:48;25.70;95.40
29813;DHT22;16707;48.106;11.548;2023-09-08T10:48:15;25.70;95.30
29813;DHT22;16707;48.106;11.548;2023-09-08T10:50:42;25.80;95.20
29813;DHT22;16707;48.106;11.548;2023-09-08T10:53:15;25.80;95.40
29813;DHT22;16707;48.106;11.548;2023-09-08T10:55:44;26.00;94.70
29813;DHT22;16707;48.106;11.548;2023-09-08T10:58:18;26.00;94.10
29813;DHT22;16707;48.106;11.548;2023-09-08T11:00:51;26.20;94.10
29813;DHT22;16707;48.106;11.548;2023-09-08T11:03:27;26.30;94.30
29813;DHT22;16707;48.106;11.548;2023-09-08T11:05:56;26.30;93.80
29813;DHT22;16707;48.106;11.548;2023-09-08T11:08:23;26.40;93.90
29813;DHT22;16707;48.106;11.548;2023-09-08T11:10:50;26.50;92.80
29813;DHT22;16707;48.106;11.548;2023-09-08T11:13:18;26.50;92.50
29813;DHT22;16707;48.106;11.548;2023-09-08T11:15:45;26.50;92.90
29813;DHT22;16707;48.106;11.548;2023-09-08T11:18:13;26.50;92.60
29813;DHT22;16707;48.106;11.548;2023-09-08T11:20:40;26.50;92.70
29813;DHT22;16707;48.106;11.548;2023-09-08T11:23:08;26.50;94.10
29813;DHT22;16707;48.106;11.548;2023-09-08T11:25:35;26.50;94.30
29813;DHT22;16707;48.106;11.548;2023-09-08T11:28:03;26.60;93.90
29813;DHT22;16707;48.106;11.548;2023-09-08T11:30:30;26.60;93.60
29813;DHT22;16707;48.106;11.548;2023-09-08T11:32:58;26.60;93.60
29813;DHT22;16707;48.106;11.548;2023-09-08T11:35:32;26.30;92.70
29813;DHT22;16707;48.106;11.548;2023-09-08T11:38:00;26.40;92.20
29813;DHT22;16707;48.106;11.548;2023-09-08T11:40:30;26.50;93.60
29813;DHT22;16707;48.106;11.548;2023-09-08T11:42:58;26.70;92.30
29813;DHT22;16707;48.106;11.548;2023-09-08T11:45:25;26.80;92.80
29813;DHT22;16707;48.106;11.548;2023-09-08T11:47:53;26.80;91.30
29813;DHT22;16707;48.106;11.548;2023-09-08T11:50:22;26.90;91.70
29813;DHT22;16707;48.106;11.548;2023-09-08T11:52:51;27.10;91.10
29813;DHT22;16707;48.106;11.548;2023-09-08T11:55:22;27.10;91.60
29813;DHT22;16707;48.106;11.548;2023-09-08T11:57:50;27.00;92.60
29813;DHT22;16707;48.106;11.548;2023-09-08T12:00:20;27.00;92.40
29813;DHT22;16707;48.106;11.548;2023-09-08T12:02:49;26.80;92.10
29813;DHT22;16707;48.106;11.548;2023-09-08T12:05:21;26.90;91.20
29813;DHT22;16707;48.106;11.548;2023-09-08T12:07:52;26.90;91.10
29813;DHT22;16707;48.106;11.548;2023-09-08T12:10:21;27.00;91.40
29813;DHT22;16707;48.106;11.548;2023-09-08T12:12:49;27.10;91.90
29813;DHT22;16707;48.106;11.548;2023-09-08T12:15:31;27.00;90.80
29813;DHT22;16707;48.106;11.548;2023-09-08T12:18:00;27.00;90.50
29813;DHT22;16707;48.106;11.548;2023-09-08T12:20:28;27.20;90.30
29813;DHT22;16707;48.106;11.548;2023-09-08T12:22:58;27.10;90.70
29813;DHT22;16707;48.106;11.548;2023-09-08T12:25:27;27.00;90.90
29813;DHT22;16707;48.106;11.548;2023-09-08T12:27:57;27.10;91.20
29813;DHT22;16707;48.106;11.548;2023-09-08T12:30:25;27.20;90.40
29813;DHT22;16707;48.106;11.548;2023-09-08T12:32:57;27.20;91.20
29813;DHT22;16707;48.106;11.548;2023-09-08T12:35:25;27.20;91.00
29813;DHT22;16707;48.106;11.548;2023-09-08T12:37:59;27.30;91.00
29813;DHT22;16707;48.106;11.548;2023-09-08T12:40:27;27.40;90.50
29813;DHT22;16707;48.106;11.548;2023-09-08T12:42:56;27.40;90.50
29813;DHT22;16707;48.106;11.548;2023-09-08T12:45:26;27.40;91.00
29813;DHT22;16707;48.106;11.548;2023-09-08T12:47:54;27.50;90.00
29813;DHT22;16707;48.106;11.548;2023-09-08T12:50:24;27.40;90.90
29813;DHT22;16707;48.106;11.548;2023-09-08T12:52:51;27.50;90.70
29813;DHT22;16707;48.106;11.548;2023-09-08T12:55:20;27.60;90.00
29813;DHT22;16707;48.106;11.548;2023-09-08T12:57:47;27.60;90.00
29813;DHT22;16707;48.106;11.548;2023-09-08T13:00:15;27.50;91.10
29813;DHT22;16707;48.106;11.548;2023-09-08T13:02:44;27.40;91.00
29813;DHT22;16707;48.106;11.548;2023-09-08T13:05:11;27.40;90.80
29813;DHT22;16707;48.106;11.548;2023-09-08T13:07:38;27.40;90.70
29813;DHT22;16707;48.106;11.548;2023-09-08T13:10:07;27.30;89.40
29813;DHT22;16707;48.106;11.548;2023-09-08T13:12:35;27.30;89.40
29813;DHT22;16707;48.106;11.548;2023-09-08T13:15:03;27.40;90.10
29813;DHT22;16707;48.106;11.548;2023-09-08T13:17:31;27.50;89.80
29813;DHT22;16707;48.106;11.548;2023-09-08T13:19:58;27.60;90.40
29813;DHT22;16707;48.106;11.548;2023-09-08T13:22:25;27.50;90.40
29813;DHT22;16707;48.106;11.548;2023-09-08T13:24:52;27.60;90.00
29813;DHT22;16707;48.106;11.548;2023-09-08T13:27:18;27.60;88.00
29813;DHT22;16707;48.106;11.548;2023-09-08T13:29:47;27.70;89.50
29813;DHT22;16707;48.106;11.548;2023-09-08T13:32:14;27.60;88.00
29813;DHT22;16707;48.106;11.548;2023-09-08T13:34:41;27.70;88.80
29813;DHT22;16707;48.106;11.548;2023-09-08T13:37:09;27.60;88.30
29813;DHT22;16707;48.106;11.548;2023-09-08T13:39:36;27.70;89.10
29813;DHT22;16707;48.106;11.548;2023-09-08T13:42:04;27.70;87.10
29813;DHT22;16707;48.106;11.548;2023-09-08T13:44:30;27.60;89.50
29813;DHT22;16707;48.106;11.548;2023-09-08T13:46:59;27.50;87.70
29813;DHT22;16707;48.106;11.548;2023-09-08T13:49:26;27.50;88.70
29813;DHT22;16707;48.106;11.548;2023-09-08T13:51:53;27.50;86.80
29813;DHT22;16707;48.106;11.548;2023-09-08T13:54:20;27.50;88.20
29813;DHT22;16707;48.106;11.548;2023-09-08T13:56:57;27.60;86.50
29813;DHT22;16707;48.106;11.548;2023-09-08T13:59:26;27.50;86.40
29813;DHT22;16707;48.106;11.548;2023-09-08T14:01:54;27.60;85.30
29813;DHT22;16707;48.106;11.548;2023-09-08T14:04:23;27.80;84.90
29813;DHT22;16707;48.106;11.548;2023-09-08T14:06:50;27.70;84.70
29813;DHT22;16707;48.106;11.548;2023-09-08T14:09:17;27.70;85.20
29813;DHT22;16707;48.106;11.548;2023-09-08T14:11:44;27.80;84.30
29813;DHT22;16707;48.106;11.548;2023-09-08T14:14:11;27.80;83.70
29813;DHT22;16707;48.106;11.548;2023-09-08T14:16:38;27.80;83.40
29813;DHT22;16707;48.106;11.548;2023-09-08T14:19:05;27.70;84.10
29813;DHT22;16707;48.106;11.548;2023-09-08T14:21:34;27.70;83.80
29813;DHT22;16707;48.106;11.548;2023-09-08T14:24:03;27.70;83.60
29813;DHT22;16707;48.106;11.548;2023-09-08T14:26:30;27.80;84.10
29813;DHT22;16707;48.106;11.548;2023-09-08T14:28:57;27.90;83.30
29813;DHT22;16707;48.106;11.548;2023-09-08T14:31:24;27.80;83.80
29813;DHT22;16707;48.106;11.548;2023-09-08T14:33:51;27.80;84.40
29813;DHT22;16707;48.106;11.548;2023-09-08T14:36:18;27.80;84.80
29813;DHT22;16707;48.106;11.548;2023-09-08T14:38:46;27.70;84.80
29813;DHT22;16707;48.106;11.548;2023-09-08T14:41:13;27.80;85.00
29813;DHT22;16707;48.106;11.548;2023-09-08T14:43:41;27.90;85.70
29813;DHT22;16707;48.106;11.548;2023-09-08T14:46:08;27.90;86.50
29813;DHT22;16707;48.106;11.548;2023-09-08T14:48:35;27.90;87.50
29813;DHT22;16707;48.106;11.548;2023-09-08T14:51:02;28.00;86.50
29813;DHT22;16707;48.106;11.548;2023-09-08T14:53:29;28.00;84.40
29813;DHT22;16707;48.106;11.548;2023-09-08T14:55:58;28.00;84.50
29813;DHT22;16707;48.106;11.548;2023-09-08T14:58:26;27.80;84.10
29813;DHT22;16707;48.106;11.548;2023-09-08T15:00:59;27.90;84.30
29813;DHT22;16707;48.106;11.548;2023-09-08T15:03:30;27.80;85.30
29813;DHT22;16707;48.106;11.548;2023-09-08T15:05:58;27.60;84.90
29813;DHT22;16707;48.106;11.548;2023-09-08T15:08:25;27.50;86.40
29813;DHT22;16707;48.106;11.548;2023-09-08T15:10:52;27.60;86.50
29813;DHT22;16707;48.106;11.548;2023-09-08T15:13:20;27.60;84.80
29813;DHT22;16707;48.106;11.548;2023-09-08T15:15:47;27.50;85.50
29813;DHT22;16707;48.106;11.548;2023-09-08T15:18:14;27.50;86.10
29813;DHT22;16707;48.106;11.548;2023-09-08T15:20:50;27.60;86.70